LIRE Airport Information

Runway Information
Runway 13 Length 8335 ft width 148 ft
Elevation 40 ft Threshold 530 ft Heading 130
Runway 31 Length 8335 ft Width 148 ft
Elevation 38 ft Threshold 0 ft Heading 310
Runway 13L Length 8138 ft width 98 ft
Elevation 0 ft Threshold 430 ft Heading 130
Runway 31R Length 8138 ft Width 98 ft
Elevation 0 ft Threshold 430 ft Heading 310
Airport Frequencies
Type GND Name GND Frequency 121.6 MHZ
Type TWR Name TWR Frequency 122.1 MHZ
Airport Navaids
Type NDB Name Pratica Di Mare Frequency 339 KHZ
Type TACAN Name Pratica Di Mare Frequency 108700 KHZ
Airport Weather Information & NOTAM
ADDS - METARS form results

(0117 UTC 25 March 2019)
Data provider http://aviationweather.gov/metar/data/
 
METAR text: LIRE 250055Z 05002KT 0100 FG OVC003 06/05 Q1020 RMK OVC VIS MIN 0100 WIND THR13 05002KT WIND THR31 /////KT RED
Conditions at: LIRE (PRATICA DI MARE(, IT) observed 0055 UTC 25 March 2019
Temperature: 6.0°C (43°F)
Dewpoint: 5.0°C (41°F) [RH = 93%]
Pressure (altimeter): 30.12 inches Hg (1020.0 mb)
Winds: from the NE (50 degrees) at 2 MPH (2 knots; 1.0 m/s)
Visibility: 0.06 miles (0.10 km)
Ceiling: 300 feet AGL
Clouds: overcast cloud deck at 300 feet AGL
Weather: FG  (fog)

METAR text: LIRE 250026Z 05002KT 0100 FG BKN001 06/05 Q1020 RMK BKN VIS MIN 0100 WIND THR13 04002KT WIND THR31 /////KT RED
Conditions at: LIRE (PRATICA DI MARE(, IT) observed 0026 UTC 25 March 2019
Temperature: 6.0°C (43°F)
Dewpoint: 5.0°C (41°F) [RH = 93%]
Pressure (altimeter): 30.12 inches Hg (1020.0 mb)
Winds: from the NE (50 degrees) at 2 MPH (2 knots; 1.0 m/s)
Visibility: 0.06 miles (0.10 km)
Ceiling: 100 feet AGL
Clouds: broken clouds at 100 feet AGL
Weather: FG  (fog)

Forecast for: LIRE (PRATICA DI MARE(, IT)
Text: TAF LIRE 242300Z 2500/2509 VRB03KT 8000 NSC
Forecast period: 0000 to 0900 UTC 25 March 2019
Forecast type: FROM: standard forecast or significant change
Winds: variable direction winds at 3 MPH (3 knots; 1.5 m/s)
Visibility: 5 miles (8 km)
Ceiling: unknown
Clouds: missing
Weather: no significant weather forecast for this period
Text: PROB30
Forecast period: 0200 to 0500 UTC 25 March 2019
Forecast type: TEMPORARY: The following changes expected for less than half the time period
Visibility: 3 miles (5 km)
Ceiling: unknown
Clouds: missing
Weather: BR  (mist)